Humidity-temperature Sensor

Selected Measurement Type: Relative Humidity

 
Relative Humidity [%]     6 entries per hour
Showing data from 8/29/2022 (00:00:00 Z) to 8/22/2022 (00:01:00 Z)
Previous Next [ Day | 3-Days | 7-Days ]
First Last
Prev [ Day | 3-Days | 7-Days ] Next
First Last

Start Time:     :
End Time:     :     
Time (in GMT) :00 :50 :40 :30 :20 :10
Previous Next [ Day | 3-Days | 7-Days ]
First Last
Prev [ Day | 3-Days | 7-Days ] Next
First Last


123 => good data
MM => data is determined as missing
-- => data not received/configured
Back to Top Back to Top
8/29/2022 00:00 to 23:10 88.33 88.37 87.94 87.90 87.41 87.18
8/28/2022 23:00 to 22:10 86.94 86.98 85.91 85.54 84.74 84.68
8/28/2022 22:00 to 21:10 84.59 84.63 84.37 84.24 84.88 84.76
8/28/2022 21:00 to 20:10 84.66 84.80 84.88 85.29 85.68 85.09
8/28/2022 20:00 to 19:10 83.94 83.38 83.67 83.28 82.95 82.83
8/28/2022 19:00 to 18:10 83.05 82.68 82.37 82.31 83.18 83.24
8/28/2022 18:00 to 17:10 83.26 82.95 83.32 83.61 84.22 84.59
8/28/2022 17:00 to 16:10 84.61 84.96 85.05 85.17 85.66 86.20
8/28/2022 16:00 to 15:10 86.73 87.00 87.06 86.94 87.16 87.45
8/28/2022 15:00 to 14:10 87.78 87.33 87.43 87.57 87.37 87.41
8/28/2022 14:00 to 13:10 87.74 87.96 87.82 87.96 87.84 87.88
8/28/2022 13:00 to 12:10 88.17 88.27 88.68 88.72 88.60 88.74
8/28/2022 12:00 to 11:10 88.54 88.44 87.96 88.07 88.11 88.54
8/28/2022 11:00 to 10:10 89.03 89.01 89.05 88.87 89.01 89.30
8/28/2022 10:00 to 9:10 89.26 89.07 89.36 89.30 89.34 89.40
8/28/2022 09:00 to 8:10 89.63 89.48 89.53 90.43 90.41 90.43
8/28/2022 08:00 to 7:10 90.43 90.22 89.32 88.85 88.48 88.48
8/28/2022 07:00 to 6:10 88.60 88.72 88.77 88.52 88.99 89.65
8/28/2022 06:00 to 5:10 89.96 90.00 90.51 90.51 90.84 91.54
8/28/2022 05:00 to 4:10 92.32 92.32 92.05 91.81 92.14 92.96
8/28/2022 04:00 to 3:10 93.68 94.05 94.29 94.11 93.98 93.53
8/28/2022 03:00 to 2:10 93.02 93.00 92.73 92.85 93.61 94.25
8/28/2022 02:00 to 1:10 95.24 95.65 96.20 95.44 94.29 92.90
8/28/2022 01:00 to 0:10 91.62 91.72 91.09 89.09 89.50 89.34
8/28/2022 00:00 to 23:10 89.28 89.32 89.26 88.93 89.11 89.34
8/27/2022 23:00 to 22:10 89.11 88.62 88.40 88.54 88.93 89.32
8/27/2022 22:00 to 21:10 89.03 88.85 88.50 88.54 88.70 88.99
8/27/2022 21:00 to 20:10 89.22 89.34 90.31 90.18 89.87 88.72
8/27/2022 20:00 to 19:10 88.83 88.40 88.44 88.40 89.20 89.38
8/27/2022 19:00 to 18:10 89.24 88.97 89.03 89.03 88.66 88.66
8/27/2022 18:00 to 17:10 88.54 88.70 88.95 89.03 89.28 89.59
8/27/2022 17:00 to 16:10 89.46 89.20 89.11 89.46 89.73 89.94
8/27/2022 16:00 to 15:10 89.92 90.24 90.78 91.05 91.23 91.09
8/27/2022 15:00 to 14:10 91.09 90.78 90.47 89.94 89.36 88.52
8/27/2022 14:00 to 13:10 88.56 88.66 88.97 89.50 90.00 89.81
8/27/2022 13:00 to 12:10 89.77 89.94 90.00 89.75 89.75 88.95
8/27/2022 12:00 to 11:10 88.70 88.81 89.11 89.24 88.87 88.44
8/27/2022 11:00 to 10:10 88.40 88.29 88.05 88.15 88.54 88.93
8/27/2022 10:00 to 9:10 89.11 88.52 88.37 87.94 87.84 87.61
8/27/2022 09:00 to 8:10 88.00 88.56 88.60 88.50 88.74 88.89
8/27/2022 08:00 to 7:10 88.27 88.21 88.48 88.72 89.22 88.68
8/27/2022 07:00 to 6:10 88.70 88.64 88.83 89.20 89.38 89.28
8/27/2022 06:00 to 5:10 89.40 88.79 88.00 87.33 87.06 87.24
8/27/2022 05:00 to 4:10 87.39 87.53 87.80 88.09 88.11 87.68
8/27/2022 04:00 to 3:10 87.80 87.68 87.82 88.37 88.31 88.35
8/27/2022 03:00 to 2:10 88.31 88.15 87.66 87.18 87.66 87.74
8/27/2022 02:00 to 1:10 87.78 87.45 87.61 87.43 87.51 87.14
8/27/2022 01:00 to 0:10 86.73 86.69 86.67 86.32 85.93 85.74
8/27/2022 00:00 to 23:10 86.18 86.67 86.44 87.04 87.63 87.35
8/26/2022 23:00 to 22:10 87.51 86.94 86.61 85.56 85.60 85.31
8/26/2022 22:00 to 21:10 85.91 86.63 87.04 87.33 87.31 87.29
8/26/2022 21:00 to 20:10 86.75 86.03 85.89 86.11 86.53 86.55
8/26/2022 20:00 to 19:10 86.38 86.13 86.40 86.22 86.96 86.79
8/26/2022 19:00 to 18:10 85.48 85.52 86.34 87.86 89.55 90.45
8/26/2022 18:00 to 17:10 91.52 92.42 92.85 94.23 94.79 94.52
8/26/2022 17:00 to 16:10 93.76 92.67 91.77 90.78 90.22 90.53
8/26/2022 16:00 to 15:10 90.35 90.84 91.35 92.14 92.44 92.36
8/26/2022 15:00 to 14:10 92.36 92.22 91.89 90.41 87.59 86.57
8/26/2022 14:00 to 13:10 86.69 86.77 86.30 86.53 86.20 86.09
8/26/2022 13:00 to 12:10 85.85 86.07 86.73 87.06 87.29 87.18
8/26/2022 12:00 to 11:10 86.94 85.91 85.17 84.18 85.35 85.99
8/26/2022 11:00 to 10:10 86.65 86.73 87.14 87.26 87.33 87.68
8/26/2022 10:00 to 9:10 88.31 88.58 88.58 88.62 88.62 88.40
8/26/2022 09:00 to 8:10 88.27 88.03 87.80 87.49 87.57 87.18
8/26/2022 08:00 to 7:10 87.68 88.13 88.23 87.74 88.03 88.31
8/26/2022 07:00 to 6:10 88.50 88.03 88.33 88.56 88.42 88.07
8/26/2022 06:00 to 5:10 87.98 87.92 87.74 87.14 86.96 86.59
8/26/2022 05:00 to 4:10 85.79 85.70 85.85 85.72 85.95 85.99
8/26/2022 04:00 to 3:10 85.95 85.60 85.97 86.32 86.57 86.42
8/26/2022 03:00 to 2:10 86.07 85.72 85.87 86.03 85.79 85.68
8/26/2022 02:00 to 1:10 85.93 86.07 86.11 86.26 86.05 85.52
8/26/2022 01:00 to 0:10 85.72 85.64 85.97 86.03 86.07 86.03
8/26/2022 00:00 to 23:10 86.28 86.46 86.26 86.22 86.40 86.46
8/25/2022 23:00 to 22:10 86.59 85.97 85.85 85.70 85.66 85.74
8/25/2022 22:00 to 21:10 85.52 85.70 85.91 85.99 86.20 86.81
8/25/2022 21:00 to 20:10 87.29 87.61 87.61 87.55 87.10 86.83
8/25/2022 20:00 to 19:10 86.20 85.50 85.31 85.35 85.48 85.99
8/25/2022 19:00 to 18:10 86.40 86.46 86.55 86.69 86.32 86.53
8/25/2022 18:00 to 17:10 86.65 86.85 87.10 87.14 86.46 86.03
8/25/2022 17:00 to 16:10 85.37 84.35 83.55 83.18 83.46 83.42
8/25/2022 16:00 to 15:10 83.53 83.42 83.40 83.46 84.86 84.63
8/25/2022 15:00 to 14:10 84.00 83.18 82.58 82.48 82.42 82.50
8/25/2022 14:00 to 13:10 82.81 83.09 83.55 83.65 84.41 84.47
8/25/2022 13:00 to 12:10 84.51 84.45 84.26 84.82 84.98 84.94
8/25/2022 12:00 to 11:10 85.00 85.15 86.07 86.34 86.26 86.67
8/25/2022 11:00 to 10:10 86.98 86.69 86.01 85.76 85.56 85.23
8/25/2022 10:00 to 9:10 85.58 85.89 86.26 87.14 87.88 87.82
8/25/2022 09:00 to 8:10 87.20 85.79 84.82 86.11 86.05 86.26
8/25/2022 08:00 to 7:10 87.24 86.96 86.77 87.00 87.29 86.61
8/25/2022 07:00 to 6:10 86.20 85.81 84.88 85.29 87.00 86.98
8/25/2022 06:00 to 5:10 85.97 86.55 86.96 87.55 87.61 87.37
8/25/2022 05:00 to 4:10 86.75 86.90 87.20 87.12 86.18 86.50
8/25/2022 04:00 to 3:10 85.81 85.76 85.48 84.59 84.82 84.43
8/25/2022 03:00 to 2:10 84.10 84.14 84.90 85.42 85.85 85.76
8/25/2022 02:00 to 1:10 85.76 86.48 86.83 86.34 85.31 85.56
8/25/2022 01:00 to 0:10 85.83 86.11 85.74 85.05 84.92 84.31
8/25/2022 00:00 to 23:10 84.47 84.41 84.02 82.54 82.15 82.17
8/24/2022 23:00 to 22:10 82.07 81.72 81.76 81.68 81.90 82.89
8/24/2022 22:00 to 21:10 82.87 82.89 83.40 84.00 84.00 83.55
8/24/2022 21:00 to 20:10 83.40 84.20 84.37 83.63 83.48 84.39
8/24/2022 20:00 to 19:10 85.21 85.62 85.62 85.85 85.42 84.66
8/24/2022 19:00 to 18:10 83.44 83.26 83.42 83.79 84.08 84.74
8/24/2022 18:00 to 17:10 85.29 85.52 85.33 85.21 85.66 86.44
8/24/2022 17:00 to 16:10 86.61 86.55 86.38 86.79 87.02 86.07
8/24/2022 16:00 to 15:10 85.95 86.36 86.61 86.40 85.95 86.01
8/24/2022 15:00 to 14:10 86.13 86.03 85.33 84.84 84.84 84.74
8/24/2022 14:00 to 13:10 84.61 84.72 85.00 84.68 84.80 85.27
8/24/2022 13:00 to 12:10 85.11 85.00 85.07 85.58 86.71 88.25
8/24/2022 12:00 to 11:10 88.46 89.07 90.37 91.27 91.89 91.64
8/24/2022 11:00 to 10:10 91.25 91.11 91.00 91.42 91.29 91.09
8/24/2022 10:00 to 9:10 92.16 93.29 93.55 93.92 94.25 94.74
8/24/2022 09:00 to 8:10 94.70 94.56 94.46 94.48 95.26 94.95
8/24/2022 08:00 to 7:10 95.11 94.99 94.87 93.78 92.50 89.94
8/24/2022 07:00 to 6:10 88.74 88.72 89.55 89.79 89.69 87.74
8/24/2022 06:00 to 5:10 87.26 88.25 87.37 87.45 87.24 87.45
8/24/2022 05:00 to 4:10 86.50 86.90 87.92 88.05 87.57 87.55
8/24/2022 04:00 to 3:10 87.24 87.24 88.03 87.88 87.39 87.57
8/24/2022 03:00 to 2:10 87.68 88.11 88.37 87.90 87.49 86.85
8/24/2022 02:00 to 1:10 86.65 86.67 86.44 86.77 85.89 85.29
8/24/2022 01:00 to 0:10 86.07 85.76 85.37 86.18 86.22 86.69
8/24/2022 00:00 to 23:10 86.44 87.16 87.70 87.49 87.86 87.90
8/23/2022 23:00 to 22:10 88.46 88.89 88.85 88.91 89.01 89.24
8/23/2022 22:00 to 21:10 88.99 88.46 88.95 89.96 90.29 90.37
8/23/2022 21:00 to 20:10 90.29 90.39 90.70 91.44 92.71 94.19
8/23/2022 20:00 to 19:10 94.05 94.25 92.90 91.09 89.24 87.68
8/23/2022 19:00 to 18:10 88.29 88.87 88.79 90.27 92.26 92.81
8/23/2022 18:00 to 17:10 92.57 91.31 89.28 88.93 88.64 88.66
8/23/2022 17:00 to 16:10 88.50 88.83 89.16 89.77 90.16 90.22
8/23/2022 16:00 to 15:10 90.10 90.39 90.20 89.81 89.65 89.73
8/23/2022 15:00 to 14:10 90.10 89.81 89.94 90.98 92.22 92.48
8/23/2022 14:00 to 13:10 92.01 91.74 91.58 92.07 92.83 93.08
8/23/2022 13:00 to 12:10 92.98 92.61 92.55 91.60 91.07 91.13
8/23/2022 12:00 to 11:10 91.58 92.34 92.50 91.44 90.90 90.78
8/23/2022 11:00 to 10:10 90.78 90.55 90.86 91.33 91.72 91.79
8/23/2022 10:00 to 9:10 91.77 91.93 92.34 92.30 92.28 92.14
8/23/2022 09:00 to 8:10 92.09 92.63 92.61 92.90 93.29 93.49
8/23/2022 08:00 to 7:10 93.22 93.18 93.22 93.20 93.12 93.24
8/23/2022 07:00 to 6:10 93.14 93.14 93.27 93.43 93.57 93.57
8/23/2022 06:00 to 5:10 94.23 94.48 94.70 94.89 94.99 94.97
8/23/2022 05:00 to 4:10 94.87 94.85 94.56 94.29 93.96 94.05
8/23/2022 04:00 to 3:10 94.13 93.59 93.00 92.67 92.34 92.63
8/23/2022 03:00 to 2:10 92.53 91.85 91.56 91.87 92.26 92.48
8/23/2022 02:00 to 1:10 92.59 92.48 91.72 90.86 90.33 90.53
8/23/2022 01:00 to 0:10 90.94 91.13 90.98 91.52 91.74 92.32
8/23/2022 00:00 to 23:10 93.04 94.05 94.42 95.18 95.36 95.46
8/22/2022 23:00 to 22:10 95.85 95.53 95.40 95.28 94.79 94.27
8/22/2022 22:00 to 21:10 93.70 92.57 91.64 91.17 91.46 91.33
8/22/2022 21:00 to 20:10 91.13 90.98 91.00 91.58 91.83 92.42
8/22/2022 20:00 to 19:10 92.59 92.96 92.94 93.29 93.80 94.13
8/22/2022 19:00 to 18:10 94.66 94.58 94.54 94.19 93.92 93.70
8/22/2022 18:00 to 17:10 94.13 94.44 94.70 94.77 94.58 94.54
8/22/2022 17:00 to 16:10 94.89 95.30 95.85 95.90 95.48 94.74
8/22/2022 16:00 to 15:10 93.72 93.66 93.59 93.74 93.12 93.22
8/22/2022 15:00 to 14:10 93.43 93.80 94.11 93.84 94.00 94.29
8/22/2022 14:00 to 13:10 94.44 94.79 95.09 95.16 95.22 95.34
8/22/2022 13:00 to 12:10 95.42 95.53 95.46 95.07 94.99 94.99
8/22/2022 12:00 to 11:10 95.24 95.18 95.53 95.85 95.44 94.99
8/22/2022 11:00 to 10:10 93.76 93.27 92.98 93.14 93.18 93.39
8/22/2022 10:00 to 9:10 94.07 94.70 94.89 94.72 94.11 93.45
8/22/2022 09:00 to 8:10 93.31 92.34 92.24 92.63 92.83 93.20
8/22/2022 08:00 to 7:10 93.57 93.57 93.70 93.68 93.76 93.57
8/22/2022 07:00 to 6:10 93.59 93.47 93.53 93.29 93.10 93.00
8/22/2022 06:00 to 5:10 93.06 92.98 92.87 92.71 92.87 93.12
8/22/2022 05:00 to 4:10 93.14 93.29 93.39 93.66 93.90 93.84
8/22/2022 04:00 to 3:10 93.59 93.37 93.39 93.22 93.64 93.84
8/22/2022 03:00 to 2:10 93.98 94.19 93.84 93.51 93.24 93.02
8/22/2022 02:00 to 1:10 93.08 93.47 93.27 92.77 92.28 90.78
8/22/2022 01:00 to 0:10 90.04 90.51 90.59 90.88 91.33 92.09